createdAt,value
2022-10-23T00:01:30.154Z,24.90
2022-10-23T00:04:06.487Z,25.00
2022-10-23T00:06:35.481Z,25.00
2022-10-23T00:09:04.322Z,25.00
2022-10-23T00:11:32.610Z,25.00
2022-10-23T00:14:01.362Z,25.00
2022-10-23T00:16:30.228Z,25.10
2022-10-23T00:18:58.556Z,25.10
2022-10-23T00:21:27.283Z,25.20
2022-10-23T00:23:55.012Z,25.20
2022-10-23T00:26:22.688Z,25.20
2022-10-23T00:28:51.794Z,25.20
2022-10-23T00:31:21.771Z,25.30
2022-10-23T00:33:49.579Z,25.30
2022-10-23T00:36:18.682Z,25.30
2022-10-23T00:38:46.622Z,25.30
2022-10-23T00:41:40.386Z,25.30
2022-10-23T00:44:23.038Z,25.40
2022-10-23T00:46:50.682Z,25.40
2022-10-23T00:49:18.364Z,25.40
2022-10-23T00:51:48.516Z,25.40
2022-10-23T00:54:23.952Z,25.40
2022-10-23T00:56:55.717Z,25.50
2022-10-23T00:59:24.201Z,25.50
2022-10-23T01:01:52.212Z,25.50
2022-10-23T01:04:20.426Z,25.50
2022-10-23T01:06:52.456Z,25.60
2022-10-23T01:09:41.262Z,25.60
2022-10-23T01:12:18.534Z,25.60
2022-10-23T01:14:56.126Z,25.70
2022-10-23T01:17:34.006Z,25.70
2022-10-23T01:20:15.251Z,25.80
2022-10-23T01:22:43.694Z,25.80
2022-10-23T01:25:32.174Z,25.80
2022-10-23T01:28:06.282Z,25.80
2022-10-23T01:30:34.800Z,25.90
2022-10-23T01:33:06.120Z,25.90
2022-10-23T01:35:33.682Z,26.00
2022-10-23T01:38:07.966Z,26.00
2022-10-23T01:40:38.396Z,26.10
2022-10-23T01:43:08.661Z,26.10
2022-10-23T01:45:44.237Z,26.20
2022-10-23T01:48:14.485Z,26.20
2022-10-23T01:50:43.791Z,26.30
2022-10-23T01:53:11.630Z,26.30
2022-10-23T01:58:09.621Z,26.40
2022-10-23T02:00:40.473Z,26.50
2022-10-23T02:03:08.745Z,26.50
2022-10-23T02:05:37.299Z,26.60
2022-10-23T02:08:05.303Z,26.60
2022-10-23T02:10:42.335Z,26.70
2022-10-23T02:13:13.351Z,26.70
2022-10-23T02:15:44.000Z,26.80
2022-10-23T02:18:30.411Z,26.80
2022-10-23T02:21:18.884Z,26.90
2022-10-23T02:23:56.117Z,27.00
2022-10-23T02:26:29.575Z,27.00
2022-10-23T02:29:08.570Z,27.10
2022-10-23T02:31:36.484Z,27.20
2022-10-23T02:34:04.103Z,27.30
2022-10-23T02:36:31.921Z,27.40
2022-10-23T02:38:59.621Z,27.50
2022-10-23T02:41:30.524Z,27.60
2022-10-23T02:44:02.923Z,27.70
2022-10-23T02:46:51.058Z,27.70
2022-10-23T02:49:24.686Z,27.80
2022-10-23T02:51:55.398Z,27.80
2022-10-23T02:54:32.326Z,27.80
2022-10-23T02:57:03.831Z,27.80
2022-10-23T02:59:54.144Z,27.80
2022-10-23T03:02:24.976Z,27.80
2022-10-23T03:04:55.331Z,27.90
2022-10-23T03:07:24.004Z,27.90
2022-10-23T03:09:51.547Z,28.00
2022-10-23T03:12:20.456Z,28.00
2022-10-23T03:14:48.243Z,28.10
2022-10-23T03:17:16.246Z,28.20
2022-10-23T03:19:44.920Z,28.20
2022-10-23T03:22:12.493Z,28.30
2022-10-23T03:24:40.308Z,28.40
2022-10-23T03:27:11.770Z,28.40
2022-10-23T03:29:40.224Z,28.50
2022-10-23T03:32:07.922Z,28.50
2022-10-23T03:34:36.387Z,28.50
2022-10-23T03:37:04.065Z,28.60
2022-10-23T03:39:31.787Z,28.70
2022-10-23T03:41:59.317Z,28.80
2022-10-23T03:44:27.817Z,28.90
2022-10-23T03:46:57.374Z,29.00
2022-10-23T03:49:25.564Z,29.10
2022-10-23T03:51:55.662Z,29.20
2022-10-23T03:54:24.905Z,29.20
2022-10-23T03:56:56.563Z,29.30
2022-10-23T03:59:26.029Z,29.30
2022-10-23T04:01:54.482Z,29.40
2022-10-23T04:04:22.726Z,29.40
2022-10-23T04:06:50.650Z,29.40
2022-10-23T04:09:19.255Z,29.50
2022-10-23T04:11:47.822Z,29.40
2022-10-23T04:14:16.359Z,29.50
2022-10-23T04:16:45.205Z,29.60
2022-10-23T04:19:13.016Z,29.60
2022-10-23T04:21:40.509Z,29.60
2022-10-23T04:24:08.730Z,29.60
2022-10-23T04:26:36.648Z,29.60
2022-10-23T04:29:04.508Z,29.70
2022-10-23T04:31:33.122Z,29.70
2022-10-23T04:34:01.634Z,29.80
2022-10-23T04:36:29.514Z,29.90
2022-10-23T04:38:57.294Z,29.90
2022-10-23T04:41:24.927Z,30.00
2022-10-23T04:43:52.550Z,30.10
2022-10-23T04:46:21.449Z,30.10
2022-10-23T04:48:49.198Z,30.20
2022-10-23T04:51:16.826Z,30.20
2022-10-23T04:53:44.511Z,30.30
2022-10-23T04:56:14.353Z,30.20
2022-10-23T04:58:43.073Z,30.30
2022-10-23T05:01:11.073Z,30.30
2022-10-23T05:03:39.204Z,30.40
2022-10-23T05:08:49.032Z,30.40
2022-10-23T05:11:16.670Z,30.30
2022-10-23T05:13:44.272Z,30.40
2022-10-23T05:16:14.586Z,30.40
2022-10-23T05:18:49.348Z,30.30
2022-10-23T05:21:21.366Z,30.40
2022-10-23T05:23:50.247Z,30.40
2022-10-23T05:26:18.985Z,30.40
2022-10-23T05:28:47.011Z,30.50
2022-10-23T05:31:16.405Z,30.50
2022-10-23T05:33:44.308Z,30.60
2022-10-23T05:36:12.770Z,30.70
2022-10-23T05:38:40.857Z,30.70
2022-10-23T05:41:10.726Z,30.70
2022-10-23T05:43:45.108Z,30.70
2022-10-23T05:46:12.834Z,30.80
2022-10-23T05:48:40.696Z,30.80
2022-10-23T05:51:09.779Z,30.70
2022-10-23T05:53:40.227Z,30.80
2022-10-23T05:56:11.002Z,30.70
2022-10-23T05:58:39.621Z,30.70
2022-10-23T06:01:08.669Z,30.80
2022-10-23T06:03:38.434Z,30.70
2022-10-23T06:06:20.899Z,30.70
2022-10-23T06:08:59.502Z,30.80
2022-10-23T06:11:27.686Z,30.70
2022-10-23T06:16:25.778Z,30.80
2022-10-23T06:18:53.882Z,30.80
2022-10-23T06:21:21.638Z,30.80
2022-10-23T06:23:49.224Z,30.90
2022-10-23T06:26:21.571Z,30.90
2022-10-23T06:28:49.500Z,31.00
2022-10-23T06:31:20.866Z,31.00
2022-10-23T06:33:48.500Z,31.00
2022-10-23T06:36:16.161Z,31.10
2022-10-23T06:38:43.919Z,31.00
2022-10-23T06:41:15.664Z,31.00
2022-10-23T06:43:44.039Z,30.90
2022-10-23T06:46:12.355Z,30.90
2022-10-23T06:48:41.734Z,31.00
2022-10-23T06:51:13.300Z,31.00
2022-10-23T06:53:42.417Z,31.00
2022-10-23T06:56:11.076Z,31.00
2022-10-23T06:58:40.376Z,31.00
2022-10-23T07:01:09.812Z,31.10
2022-10-23T07:03:38.213Z,31.10
2022-10-23T07:06:07.218Z,31.10
2022-10-23T07:08:34.952Z,31.10
2022-10-23T07:11:09.424Z,31.20
2022-10-23T07:13:38.816Z,31.10
2022-10-23T07:16:14.119Z,31.10
2022-10-23T07:18:41.718Z,31.10
2022-10-23T07:21:10.274Z,31.10
2022-10-23T07:23:38.019Z,31.10
2022-10-23T07:26:08.465Z,31.10
2022-10-23T07:28:36.826Z,31.10
2022-10-23T07:31:10.007Z,31.00
2022-10-23T07:33:38.725Z,31.00
2022-10-23T07:36:07.914Z,31.00
2022-10-23T07:38:36.948Z,30.90
2022-10-23T07:41:08.872Z,30.90
2022-10-23T07:43:39.334Z,30.90
2022-10-23T07:46:08.906Z,30.90
2022-10-23T07:48:38.079Z,30.90
2022-10-23T07:51:10.994Z,31.00
2022-10-23T07:53:38.921Z,30.90
2022-10-23T07:56:21.857Z,30.90
2022-10-23T07:58:54.354Z,30.90
2022-10-23T08:01:43.313Z,31.00
2022-10-23T08:04:11.760Z,31.00
2022-10-23T08:06:39.826Z,31.00
2022-10-23T08:09:07.938Z,31.00
2022-10-23T08:11:38.444Z,30.90
2022-10-23T08:14:07.245Z,30.90
2022-10-23T08:16:38.053Z,30.90
2022-10-23T08:19:07.272Z,30.90
2022-10-23T08:21:35.138Z,30.80
2022-10-23T08:24:03.354Z,30.80
2022-10-23T08:26:32.133Z,30.90
2022-10-23T08:29:00.322Z,30.90
2022-10-23T08:31:28.124Z,30.90
2022-10-23T08:33:56.850Z,30.90
2022-10-23T08:36:26.964Z,30.90
2022-10-23T08:38:56.435Z,31.00
2022-10-23T08:41:32.633Z,31.00
2022-10-23T08:44:28.782Z,31.00
2022-10-23T08:47:05.033Z,31.00
2022-10-23T08:49:34.032Z,30.90
2022-10-23T08:52:04.137Z,30.90
2022-10-23T08:54:54.874Z,30.90
2022-10-23T08:57:23.874Z,30.90
2022-10-23T09:00:14.280Z,30.90
2022-10-23T09:02:45.137Z,30.90
2022-10-23T09:05:33.488Z,30.90
2022-10-23T09:08:09.801Z,30.90
2022-10-23T09:10:56.831Z,30.90
2022-10-23T09:13:42.606Z,30.90
2022-10-23T09:16:31.062Z,30.90
2022-10-23T09:18:59.541Z,30.90
2022-10-23T09:21:30.642Z,30.90
2022-10-23T09:23:58.189Z,30.90
2022-10-23T09:26:25.832Z,30.80
2022-10-23T09:28:59.285Z,30.80
2022-10-23T09:31:26.918Z,30.80
2022-10-23T09:33:58.409Z,30.80
2022-10-23T09:36:29.444Z,30.80
2022-10-23T09:38:59.199Z,30.80
2022-10-23T09:41:31.730Z,30.80
2022-10-23T09:44:09.002Z,30.70
2022-10-23T09:46:44.345Z,30.70
2022-10-23T09:49:19.169Z,30.70
2022-10-23T09:52:05.367Z,30.60
2022-10-23T09:54:37.241Z,30.60
2022-10-23T09:57:23.301Z,30.50
2022-10-23T09:59:52.173Z,30.60
2022-10-23T10:02:30.369Z,30.50
2022-10-23T10:04:58.469Z,30.50
2022-10-23T10:07:33.386Z,30.40
2022-10-23T10:10:04.586Z,30.40
2022-10-23T10:12:51.757Z,30.40
2022-10-23T10:15:28.574Z,30.40
2022-10-23T10:18:15.915Z,30.30
2022-10-23T10:20:56.002Z,30.20
2022-10-23T10:23:29.505Z,30.20
2022-10-23T10:25:57.885Z,30.20
2022-10-23T10:28:29.177Z,30.20
2022-10-23T10:31:00.468Z,30.10
2022-10-23T10:33:34.604Z,30.00
2022-10-23T10:36:17.795Z,30.00
2022-10-23T10:38:50.628Z,30.00
2022-10-23T10:41:21.508Z,30.00
2022-10-23T10:43:58.340Z,29.90
2022-10-23T10:46:40.354Z,29.80
2022-10-23T10:49:19.472Z,29.80
2022-10-23T10:51:53.282Z,29.70
2022-10-23T10:54:40.225Z,29.70
2022-10-23T10:57:14.571Z,29.60
2022-10-23T10:59:45.618Z,29.50
2022-10-23T11:02:19.258Z,29.50
2022-10-23T11:04:51.443Z,29.50
2022-10-23T11:07:25.179Z,29.40
2022-10-23T11:09:52.936Z,29.40
2022-10-23T11:12:23.143Z,29.30
2022-10-23T11:14:50.910Z,29.30
2022-10-23T11:17:25.660Z,29.20
2022-10-23T11:19:53.186Z,29.20
2022-10-23T11:22:20.856Z,29.20
2022-10-23T11:25:03.684Z,29.10
2022-10-23T11:27:37.706Z,29.10
2022-10-23T11:30:20.623Z,29.00
2022-10-23T11:32:49.307Z,28.90
2022-10-23T11:35:20.405Z,28.90
2022-10-23T11:37:58.366Z,28.80
2022-10-23T11:40:26.361Z,28.80
2022-10-23T11:42:54.774Z,28.80
2022-10-23T11:45:33.181Z,28.70
2022-10-23T11:48:05.279Z,28.70
2022-10-23T11:51:01.537Z,28.70
2022-10-23T11:53:31.848Z,28.60
2022-10-23T11:56:20.563Z,28.60
2022-10-23T11:58:55.769Z,28.60
2022-10-23T12:01:33.848Z,28.50
2022-10-23T12:04:07.859Z,28.50
2022-10-23T12:06:43.719Z,28.40
2022-10-23T12:09:29.556Z,28.40
2022-10-23T12:12:03.077Z,28.40
2022-10-23T12:14:33.888Z,28.40
2022-10-23T12:17:02.292Z,28.40
2022-10-23T12:19:31.140Z,28.40
2022-10-23T12:22:00.316Z,28.30
2022-10-23T12:24:39.572Z,28.30
2022-10-23T12:27:07.139Z,28.30
2022-10-23T12:29:43.994Z,28.30
2022-10-23T12:32:26.363Z,28.30
2022-10-23T12:35:12.427Z,28.20
2022-10-23T12:37:46.066Z,28.20
2022-10-23T12:40:13.651Z,28.20
2022-10-23T12:42:43.036Z,28.20
2022-10-23T12:45:14.789Z,28.20
2022-10-23T12:47:43.788Z,28.10
2022-10-23T12:50:26.047Z,28.10
2022-10-23T12:53:06.279Z,28.10
2022-10-23T12:55:56.921Z,28.00
2022-10-23T12:58:31.573Z,28.00
2022-10-23T13:01:04.294Z,28.00
2022-10-23T13:03:46.776Z,28.00
2022-10-23T13:08:59.735Z,28.00
2022-10-23T13:11:34.204Z,28.00
2022-10-23T13:14:02.265Z,27.90
2022-10-23T13:16:29.832Z,27.90
2022-10-23T13:18:57.295Z,27.90
2022-10-23T13:21:26.885Z,28.00
2022-10-23T13:23:55.470Z,28.00
2022-10-23T13:26:33.168Z,28.00
2022-10-23T13:29:04.721Z,28.00
2022-10-23T13:31:36.819Z,28.00
2022-10-23T13:34:06.503Z,28.00
2022-10-23T13:36:40.498Z,28.00
2022-10-23T13:39:11.028Z,28.00
2022-10-23T13:41:46.615Z,28.00
2022-10-23T13:44:15.686Z,28.00
2022-10-23T13:46:43.603Z,28.00
2022-10-23T13:49:11.200Z,28.00
2022-10-23T13:51:55.175Z,27.90
2022-10-23T13:54:24.547Z,27.90
2022-10-23T13:56:52.567Z,27.80
2022-10-23T13:59:20.809Z,27.80
2022-10-23T14:01:49.684Z,27.70
2022-10-23T14:04:18.198Z,27.70
2022-10-23T14:06:46.578Z,27.60
2022-10-23T14:09:15.632Z,27.60
2022-10-23T14:11:43.593Z,27.60
2022-10-23T14:14:11.156Z,27.60
2022-10-23T14:16:39.023Z,27.50
2022-10-23T14:19:06.637Z,27.50
2022-10-23T14:21:34.154Z,27.50
2022-10-23T14:24:01.744Z,27.40
2022-10-23T14:26:30.553Z,27.40
2022-10-23T14:29:04.488Z,27.30
2022-10-23T14:31:38.641Z,27.20
2022-10-23T14:34:06.161Z,27.10
2022-10-23T14:36:43.473Z,27.10
2022-10-23T14:39:18.844Z,27.10
2022-10-23T14:41:46.498Z,27.00
2022-10-23T14:44:14.022Z,27.00
2022-10-23T14:46:41.818Z,27.00
2022-10-23T14:49:10.178Z,27.00
2022-10-23T14:51:37.773Z,27.00
2022-10-23T14:54:06.695Z,27.00
2022-10-23T14:56:36.012Z,27.00
2022-10-23T14:59:04.397Z,26.90
2022-10-23T15:01:33.801Z,26.90
2022-10-23T15:04:01.449Z,26.80
2022-10-23T15:06:29.003Z,26.80
2022-10-23T15:08:56.669Z,26.80
2022-10-23T15:11:25.082Z,26.70
2022-10-23T15:13:53.124Z,26.60
2022-10-23T15:16:20.975Z,26.60
2022-10-23T15:18:49.549Z,26.60
2022-10-23T15:21:18.887Z,26.50
2022-10-23T15:23:47.275Z,26.50
2022-10-23T15:26:22.766Z,26.50
2022-10-23T15:28:57.550Z,26.50
2022-10-23T15:31:31.115Z,26.40
2022-10-23T15:33:59.580Z,26.40
2022-10-23T15:36:27.615Z,26.40
2022-10-23T15:38:55.393Z,26.30
2022-10-23T15:41:27.582Z,26.30
2022-10-23T15:43:55.360Z,26.20
2022-10-23T15:46:22.845Z,26.20
2022-10-23T15:48:50.426Z,26.20
2022-10-23T15:51:17.977Z,26.20
2022-10-23T15:53:45.481Z,26.20
2022-10-23T15:56:13.123Z,26.20
2022-10-23T15:58:40.901Z,26.20
2022-10-23T16:01:08.657Z,26.20
2022-10-23T16:03:37.619Z,26.20
2022-10-23T16:06:06.881Z,26.10
2022-10-23T16:08:34.446Z,26.10
2022-10-23T16:11:02.421Z,26.10
2022-10-23T16:13:29.926Z,26.00
2022-10-23T16:15:57.920Z,26.10
2022-10-23T16:18:25.489Z,26.10
2022-10-23T16:20:55.305Z,26.10
2022-10-23T16:23:23.904Z,26.10
2022-10-23T16:25:51.479Z,26.20
2022-10-23T16:28:19.036Z,26.30
2022-10-23T16:30:46.829Z,26.30
2022-10-23T16:33:14.484Z,26.40
2022-10-23T16:35:42.330Z,26.50
2022-10-23T16:38:09.831Z,26.50
2022-10-23T16:40:38.227Z,26.60
2022-10-23T16:43:05.824Z,26.60
2022-10-23T16:45:37.019Z,26.70
2022-10-23T16:48:06.283Z,26.70
2022-10-23T16:50:34.400Z,26.80
2022-10-23T16:53:02.203Z,26.80
2022-10-23T16:55:29.706Z,26.80
2022-10-23T16:57:59.982Z,26.80
2022-10-23T17:00:35.443Z,26.80
2022-10-23T17:03:04.049Z,26.80
2022-10-23T17:05:35.294Z,26.80
2022-10-23T17:08:02.819Z,26.80
2022-10-23T17:10:30.380Z,26.80
2022-10-23T17:12:58.094Z,26.80
2022-10-23T17:15:25.682Z,26.80
2022-10-23T17:17:53.352Z,26.80
2022-10-23T17:20:21.006Z,26.80
2022-10-23T17:22:48.545Z,26.80
2022-10-23T17:25:16.756Z,26.80
2022-10-23T17:27:46.730Z,26.70
2022-10-23T17:30:17.883Z,26.80
2022-10-23T17:32:46.149Z,26.70
2022-10-23T17:35:14.231Z,26.70
2022-10-23T17:37:42.088Z,26.70
2022-10-23T17:40:09.838Z,26.70
2022-10-23T17:42:37.355Z,26.70
2022-10-23T17:45:05.215Z,26.70
2022-10-23T17:47:33.033Z,26.70
2022-10-23T17:50:00.838Z,26.70
2022-10-23T17:52:28.647Z,26.70
2022-10-23T17:54:56.343Z,26.60
2022-10-23T17:59:56.540Z,26.60
2022-10-23T18:02:24.591Z,26.60
2022-10-23T18:04:52.260Z,26.60
2022-10-23T18:07:20.011Z,26.50
2022-10-23T18:09:48.549Z,26.50
2022-10-23T18:12:16.252Z,26.50
2022-10-23T18:14:44.362Z,26.50
2022-10-23T18:17:13.072Z,26.50
2022-10-23T18:19:40.596Z,26.50
2022-10-23T18:22:08.270Z,26.40
2022-10-23T18:24:38.208Z,26.40
2022-10-23T18:27:05.746Z,26.30
2022-10-23T18:29:33.369Z,26.30
2022-10-23T18:32:00.958Z,26.20
2022-10-23T18:34:28.470Z,26.20
2022-10-23T18:36:56.133Z,26.20
2022-10-23T18:39:24.848Z,26.10
2022-10-23T18:41:54.277Z,26.10
2022-10-23T18:44:23.017Z,26.10
2022-10-23T18:46:51.175Z,26.10
2022-10-23T18:49:19.251Z,26.10
2022-10-23T18:51:46.777Z,26.00
2022-10-23T18:54:15.520Z,26.00
2022-10-23T18:56:43.107Z,25.90
2022-10-23T18:59:12.316Z,25.90
2022-10-23T19:01:39.992Z,25.90
2022-10-23T19:04:08.343Z,25.90
2022-10-23T19:06:36.482Z,25.90
2022-10-23T19:09:06.362Z,25.80
2022-10-23T19:11:33.889Z,25.80
2022-10-23T19:14:01.431Z,25.80
2022-10-23T19:16:28.934Z,25.80
2022-10-23T19:19:03.388Z,25.80
2022-10-23T19:21:33.429Z,25.80
2022-10-23T19:24:02.924Z,25.80
2022-10-23T19:26:31.106Z,25.70
2022-10-23T19:28:59.026Z,25.70
2022-10-23T19:31:26.870Z,25.70
2022-10-23T19:33:55.947Z,25.70
2022-10-23T19:36:24.283Z,25.70
2022-10-23T19:38:51.925Z,25.60
2022-10-23T19:41:19.624Z,25.60
2022-10-23T19:43:47.108Z,25.60
2022-10-23T19:46:15.318Z,25.50
2022-10-23T19:48:44.682Z,25.50
2022-10-23T19:51:15.824Z,25.40
2022-10-23T19:53:43.757Z,25.40
2022-10-23T19:56:12.300Z,25.40
2022-10-23T19:58:41.263Z,25.30
2022-10-23T20:01:13.546Z,25.30
2022-10-23T20:03:42.034Z,25.20
2022-10-23T20:06:10.804Z,25.20
2022-10-23T20:08:38.339Z,25.20
2022-10-23T20:11:06.234Z,25.10
2022-10-23T20:13:34.000Z,25.10
2022-10-23T20:16:01.757Z,25.10
2022-10-23T20:18:29.333Z,25.10
2022-10-23T20:20:57.595Z,25.10
2022-10-23T20:23:25.133Z,25.20
2022-10-23T20:25:52.663Z,25.20
2022-10-23T20:28:21.948Z,25.20
2022-10-23T20:30:49.405Z,25.20
2022-10-23T20:33:17.212Z,25.20
2022-10-23T20:35:44.846Z,25.20
2022-10-23T20:38:12.449Z,25.20
2022-10-23T20:40:39.979Z,25.10
2022-10-23T20:43:07.437Z,25.10
2022-10-23T20:45:34.936Z,25.00
2022-10-23T20:48:02.659Z,25.00
2022-10-23T20:50:31.252Z,25.00
2022-10-23T20:52:59.674Z,25.00
2022-10-23T20:55:27.218Z,25.00
2022-10-23T20:57:55.360Z,25.00
2022-10-23T21:00:22.935Z,25.00
2022-10-23T21:02:52.646Z,24.90
2022-10-23T21:05:20.446Z,24.80
2022-10-23T21:07:48.901Z,24.80
2022-10-23T21:10:16.462Z,24.80
2022-10-23T21:12:44.215Z,24.70
2022-10-23T21:15:12.936Z,24.80
2022-10-23T21:17:41.216Z,24.80
2022-10-23T21:20:08.942Z,24.70
2022-10-23T21:22:36.513Z,24.80
2022-10-23T21:25:04.167Z,24.80
2022-10-23T21:27:31.672Z,24.80
2022-10-23T21:29:59.153Z,24.80
2022-10-23T21:32:26.748Z,24.80
2022-10-23T21:34:56.179Z,24.80
2022-10-23T21:37:25.310Z,24.80
2022-10-23T21:39:52.901Z,24.80
2022-10-23T21:42:20.474Z,24.80
2022-10-23T21:44:48.030Z,24.80
2022-10-23T21:47:15.489Z,24.80
2022-10-23T21:49:43.081Z,24.80
2022-10-23T21:52:10.573Z,24.80
2022-10-23T21:54:38.199Z,24.80
2022-10-23T21:57:05.792Z,24.80
2022-10-23T21:59:35.939Z,24.80
2022-10-23T22:02:04.049Z,24.80
2022-10-23T22:04:31.743Z,24.80
2022-10-23T22:06:59.264Z,24.80
2022-10-23T22:09:27.604Z,24.80
2022-10-23T22:11:55.710Z,24.80
2022-10-23T22:14:23.677Z,24.80
2022-10-23T22:16:52.609Z,24.70
2022-10-23T22:19:21.698Z,24.70
2022-10-23T22:21:50.167Z,24.70
2022-10-23T22:24:17.966Z,24.70
2022-10-23T22:26:50.087Z,24.70
2022-10-23T22:29:19.454Z,24.70
2022-10-23T22:31:48.858Z,24.70
2022-10-23T22:34:52.375Z,24.60
2022-10-23T22:37:21.477Z,24.60
2022-10-23T22:39:52.674Z,24.60
2022-10-23T22:42:20.967Z,24.60
2022-10-23T22:44:48.499Z,24.50
2022-10-23T22:47:16.588Z,24.50
2022-10-23T22:49:44.065Z,24.40
2022-10-23T22:52:11.965Z,24.40
2022-10-23T22:54:41.043Z,24.30
2022-10-23T22:57:08.531Z,24.30
2022-10-23T22:59:36.156Z,24.20
2022-10-23T23:02:03.747Z,24.20
2022-10-23T23:04:39.254Z,24.20
2022-10-23T23:07:08.040Z,24.20
2022-10-23T23:09:43.072Z,24.10
2022-10-23T23:12:12.625Z,24.10
2022-10-23T23:14:40.564Z,24.10
2022-10-23T23:17:08.370Z,24.10
2022-10-23T23:19:37.025Z,24.10
2022-10-23T23:22:05.033Z,24.10
2022-10-23T23:24:33.375Z,24.10
2022-10-23T23:27:01.146Z,24.20
2022-10-23T23:29:30.500Z,24.20
2022-10-23T23:31:58.366Z,24.20
2022-10-23T23:34:26.020Z,24.30
2022-10-23T23:36:53.471Z,24.30
2022-10-23T23:39:21.072Z,24.30
2022-10-23T23:41:49.296Z,24.30
2022-10-23T23:44:16.782Z,24.30
2022-10-23T23:46:44.300Z,24.40
2022-10-23T23:49:11.828Z,24.40
2022-10-23T23:51:39.596Z,24.40
2022-10-23T23:54:07.162Z,24.40
2022-10-23T23:56:34.703Z,24.40
2022-10-23T23:59:02.269Z,24.40
